Terminal Aerodrome Forecast
Issued by NWS

Home | Current Version | Previous Version | Text Only | Print | Product List | Glossary On
Versions: 1 2 3 4 5 6 7 8 9 10 11 12 13 14 15 16 17 18 19 20 21 22 23 24 25 26 27 28 29 30
000
FTUS41 KOKX 241124
TAFGON
TAF
KGON 241124Z 2412/2512 15017G27KT 6SM SHRA SCT008 OVC025
      WS020/17050KT
     FM241500 16019G33KT 4SM SHRA SCT004 OVC025 WS020/17050KT
     FM241900 17019G34KT 3SM SHRA VCTS SCT004 OVC012CB WS020/17050KT
     FM242300 17018G35KT 2SM +SHRA VCTS SCT004 OVC012CB
      WS020/17050KT
     FM250300 19016G24KT 2SM +SHRA VCTS SCT005 OVC012CB
      WS020/17050KT
     FM250900 16007KT 4SM SHRA SCT005 BKN012=

USA.gov is the U.S. government's official web portal to all federal, state and local government web resources and services.